createdAt,value
2018-11-04T17:16:25.787Z,50.83
2018-11-04T17:18:54.424Z,49.27
2018-11-04T17:21:22.722Z,49.30
2018-11-04T17:23:51.005Z,43.07
2018-11-04T17:26:19.323Z,46.40
2018-11-04T17:28:47.676Z,43.60
2018-11-04T17:31:16.187Z,41.93
2018-11-04T17:33:44.727Z,37.67
2018-11-04T17:36:13.266Z,40.08
2018-11-04T17:38:41.572Z,37.47
2018-11-04T17:41:10.116Z,38.30
2018-11-04T17:43:38.440Z,40.13
2018-11-04T17:46:07.076Z,37.57
2018-11-04T17:48:35.569Z,32.97
2018-11-04T17:51:03.989Z,36.60
2018-11-04T17:53:32.258Z,32.33
2018-11-04T17:56:00.789Z,40.70
2018-11-04T17:58:29.305Z,37.70
2018-11-04T18:00:57.872Z,31.70
2018-11-04T18:03:26.636Z,35.20
2018-11-04T18:05:55.053Z,31.53
2018-11-04T18:08:23.407Z,26.77
2018-11-04T18:10:52.093Z,25.23
2018-11-04T18:13:20.679Z,25.70
2018-11-04T18:15:49.148Z,27.70
2018-11-04T18:18:17.455Z,21.80
2018-11-04T18:20:46.360Z,26.00
2018-11-04T18:23:14.628Z,22.50
2018-11-04T18:25:43.076Z,24.20
2018-11-04T18:28:12.018Z,21.97
2018-11-04T18:30:40.383Z,25.80
2018-11-04T18:33:09.131Z,22.63
2018-11-04T18:35:37.416Z,25.30
2018-11-04T18:38:06.164Z,19.93
2018-11-04T18:40:34.704Z,26.20
2018-11-04T18:43:03.247Z,19.83
2018-11-04T18:45:31.976Z,21.23
2018-11-04T18:48:00.523Z,23.75
2018-11-04T18:50:28.883Z,21.40
2018-11-04T18:52:57.606Z,22.47
2018-11-04T18:55:25.904Z,23.40
2018-11-04T18:57:54.448Z,22.25
2018-11-04T19:00:22.733Z,21.47
2018-11-04T19:02:51.297Z,25.53
2018-11-04T19:05:19.857Z,23.80
2018-11-04T19:07:48.679Z,29.20
2018-11-04T19:10:18.268Z,30.53
2018-11-04T19:12:46.880Z,24.67
2018-11-04T19:15:15.461Z,28.70
2018-11-04T19:17:43.897Z,23.40
2018-11-04T19:20:13.653Z,40.38
2018-11-04T19:22:42.337Z,22.30
2018-11-04T19:25:12.768Z,22.10
2018-11-04T19:27:41.572Z,24.12
2018-11-04T19:30:12.631Z,25.37
2018-11-04T19:32:41.239Z,24.20
2018-11-04T19:35:10.800Z,20.50
2018-11-04T19:37:39.952Z,24.32
2018-11-04T19:40:09.777Z,25.07
2018-11-04T19:42:38.359Z,22.33
2018-11-04T19:45:07.456Z,23.20
2018-11-04T19:47:35.832Z,22.20
2018-11-04T19:50:05.648Z,25.40
2018-11-04T19:52:34.252Z,28.50
2018-11-04T19:55:02.934Z,26.93
2018-11-04T19:57:31.665Z,23.38
2018-11-04T20:00:01.158Z,24.90
2018-11-04T20:02:30.200Z,26.23
2018-11-04T20:04:59.249Z,22.73
2018-11-04T20:07:28.144Z,25.83
2018-11-04T20:09:56.982Z,26.50
2018-11-04T20:12:30.733Z,34.13
2018-11-04T20:14:59.083Z,25.70
2018-11-04T20:17:28.089Z,25.17
2018-11-04T20:20:02.746Z,29.10
2018-11-04T20:22:31.171Z,26.70
2018-11-04T20:25:04.960Z,28.38
2018-11-04T20:27:33.604Z,26.48
2018-11-04T20:30:02.153Z,33.03
2018-11-04T20:32:36.463Z,24.80
2018-11-04T20:35:04.962Z,29.30
2018-11-04T20:37:34.483Z,29.77
2018-11-04T20:40:08.575Z,24.53
2018-11-04T20:42:36.880Z,30.67
2018-11-04T20:45:05.406Z,24.00
2018-11-04T20:47:39.232Z,28.00
2018-11-04T20:50:13.397Z,26.00
2018-11-04T20:52:42.021Z,27.63
2018-11-04T20:55:10.547Z,21.73
2018-11-04T20:57:57.660Z,21.47
2018-11-04T21:00:26.963Z,23.77
2018-11-04T21:02:55.847Z,24.33
2018-11-04T21:05:24.399Z,22.17
2018-11-04T21:07:53.259Z,26.73
2018-11-04T21:10:21.847Z,25.30
2018-11-04T21:12:50.176Z,22.80
2018-11-04T21:15:18.488Z,26.53
2018-11-04T21:17:46.773Z,27.10
2018-11-04T21:20:15.377Z,28.07
2018-11-04T21:22:44.125Z,26.77
2018-11-04T21:25:13.045Z,25.23
2018-11-04T21:27:41.573Z,24.50
2018-11-04T21:30:11.158Z,24.70
2018-11-04T21:32:39.460Z,25.10
2018-11-04T21:35:08.973Z,22.73
2018-11-04T21:37:37.380Z,22.73
2018-11-04T21:40:07.215Z,23.17
2018-11-04T21:42:36.007Z,23.27
2018-11-04T21:45:04.500Z,20.90
2018-11-04T21:47:32.908Z,21.83
2018-11-04T21:50:01.493Z,21.60
2018-11-04T21:52:30.097Z,27.05
2018-11-04T21:54:58.761Z,24.43
2018-11-04T21:57:27.064Z,34.97
2018-11-04T21:59:55.692Z,22.03
2018-11-04T22:02:24.133Z,19.13
2018-11-04T22:04:52.553Z,30.17
2018-11-04T22:07:20.833Z,26.50
2018-11-04T22:09:49.112Z,21.83
2018-11-04T22:12:17.408Z,26.10
2018-11-04T22:14:45.684Z,26.30
2018-11-04T22:17:14.322Z,25.73
2018-11-04T22:19:43.254Z,28.50
2018-11-04T22:22:11.993Z,25.23
2018-11-04T22:24:41.242Z,20.90
2018-11-04T22:27:09.821Z,27.73
2018-11-04T22:29:38.299Z,26.47
2018-11-04T22:32:07.228Z,21.17
2018-11-04T22:34:35.532Z,21.37
2018-11-04T22:37:04.187Z,22.20
2018-11-04T22:39:32.849Z,22.60
2018-11-04T22:42:01.466Z,23.30
2018-11-04T22:44:29.964Z,24.50
2018-11-04T22:46:58.264Z,23.80
2018-11-04T22:49:26.786Z,25.90
2018-11-04T22:51:55.680Z,24.87
2018-11-04T22:54:23.968Z,22.93
2018-11-04T22:56:52.332Z,24.10
2018-11-04T22:59:20.875Z,23.63
2018-11-04T23:01:49.808Z,34.45
2018-11-04T23:04:22.884Z,24.07
2018-11-04T23:06:51.443Z,23.67
2018-11-04T23:09:19.827Z,27.80
2018-11-04T23:11:49.119Z,26.23
2018-11-04T23:14:17.647Z,24.90
2018-11-04T23:16:46.796Z,22.60
2018-11-04T23:19:15.316Z,25.47
2018-11-04T23:21:43.873Z,23.52
2018-11-04T23:24:12.605Z,23.33
2018-11-04T23:26:41.159Z,22.37
2018-11-04T23:29:09.439Z,26.47
2018-11-04T23:31:37.719Z,28.87
2018-11-04T23:34:06.657Z,29.20
2018-11-04T23:36:34.953Z,33.30
2018-11-04T23:39:04.479Z,24.57
2018-11-04T23:41:33.065Z,32.93
2018-11-04T23:44:01.334Z,23.93
2018-11-04T23:46:29.919Z,21.85
2018-11-04T23:48:58.473Z,22.00
2018-11-04T23:51:26.781Z,23.70
2018-11-04T23:53:55.740Z,38.75
2018-11-04T23:56:24.086Z,27.10
2018-11-04T23:58:52.431Z,27.50
